Terminal Aerodrome Forecast
Issued by NWS

Home | Current Version | Previous Version | Text Only | Print | Product List | Glossary On
Versions: 1 2 3 4 5 6 7 8 9 10 11 12 13 14
000
FTAK31 PANC 202339
TAFAIL
TAF
PAIL 202339Z 2100/2124 06005KT P6SM -SHRA SCT035 OVC050
     FM210600 VRB05KT P6SM VCSH SCT040 BKN060
     FM211700 VRB06KT P6SM SCT050 BKN100=

USA.gov is the U.S. government's official web portal to all federal, state and local government web resources and services.